createdAt,value
2019-05-20T00:00:02.997Z,14.28
2019-05-20T00:02:31.655Z,13.20
2019-05-20T00:05:00.262Z,13.32
2019-05-20T00:07:28.895Z,13.70
2019-05-20T00:09:57.554Z,13.03
2019-05-20T00:12:26.261Z,13.85
2019-05-20T00:14:54.750Z,14.13
2019-05-20T00:17:23.338Z,15.58
2019-05-20T00:19:51.901Z,17.00
2019-05-20T00:22:20.470Z,17.30
2019-05-20T00:24:49.030Z,18.17
2019-05-20T00:27:17.842Z,18.67
2019-05-20T00:29:46.389Z,18.70
2019-05-20T00:32:14.991Z,18.95
2019-05-20T00:34:43.673Z,18.23
2019-05-20T00:37:12.192Z,21.10
2019-05-20T00:39:40.821Z,19.25
2019-05-20T00:42:09.452Z,19.90
2019-05-20T00:44:38.745Z,19.87
2019-05-20T00:47:07.296Z,19.37
2019-05-20T00:49:35.929Z,19.57
2019-05-20T00:52:05.189Z,18.48
2019-05-20T00:54:33.830Z,19.50
2019-05-20T00:57:02.474Z,20.17
2019-05-20T00:59:31.013Z,20.37
2019-05-20T01:01:59.653Z,19.67
2019-05-20T01:04:28.257Z,19.50
2019-05-20T01:06:56.835Z,20.75
2019-05-20T01:09:25.427Z,20.23
2019-05-20T01:11:54.021Z,19.90
2019-05-20T01:14:22.591Z,19.90
2019-05-20T01:16:51.217Z,18.85
2019-05-20T01:19:19.822Z,19.15
2019-05-20T01:21:48.488Z,19.25
2019-05-20T01:24:17.038Z,19.45
2019-05-20T01:26:45.840Z,18.57
2019-05-20T01:29:14.439Z,18.17
2019-05-20T01:31:43.267Z,18.40
2019-05-20T01:34:11.853Z,18.45
2019-05-20T01:36:40.343Z,19.17
2019-05-20T01:39:08.964Z,18.40
2019-05-20T01:41:37.557Z,19.23
2019-05-20T01:44:06.316Z,19.57
2019-05-20T01:46:34.909Z,19.25
2019-05-20T01:49:03.502Z,19.02
2019-05-20T01:51:32.075Z,19.12
2019-05-20T01:54:00.643Z,18.75
2019-05-20T01:56:29.223Z,18.37
2019-05-20T01:58:57.806Z,18.12
2019-05-20T02:01:26.406Z,15.93
2019-05-20T02:03:55.005Z,17.42
2019-05-20T02:06:23.569Z,17.37
2019-05-20T02:08:52.139Z,18.20
2019-05-20T02:11:21.324Z,19.22
2019-05-20T02:13:51.676Z,18.52
2019-05-20T02:16:22.375Z,18.95
2019-05-20T02:18:50.984Z,21.62
2019-05-20T02:21:19.558Z,22.32
2019-05-20T02:23:48.122Z,20.00
2019-05-20T02:26:16.701Z,19.57
2019-05-20T02:28:45.255Z,19.37
2019-05-20T02:31:13.815Z,18.20
2019-05-20T02:33:51.676Z,20.50
2019-05-20T02:36:13.548Z,19.02
2019-05-20T02:38:42.510Z,17.48
2019-05-20T02:41:11.156Z,16.70
2019-05-20T02:43:39.767Z,15.90
2019-05-20T02:46:08.405Z,14.27
2019-05-20T02:48:37.315Z,15.13
2019-05-20T02:51:05.887Z,14.40
2019-05-20T02:53:34.464Z,13.05
2019-05-20T02:56:03.058Z,15.18
2019-05-20T02:58:31.604Z,15.28
2019-05-20T03:01:00.276Z,15.43
2019-05-20T03:03:29.330Z,15.05
2019-05-20T03:05:57.895Z,13.98
2019-05-20T03:08:35.197Z,14.63
2019-05-20T03:11:03.839Z,15.55
2019-05-20T03:13:32.488Z,14.80
2019-05-20T03:16:01.039Z,16.05
2019-05-20T03:18:30.095Z,15.25
2019-05-20T03:20:58.656Z,15.18
2019-05-20T03:23:27.232Z,15.13
2019-05-20T03:25:55.885Z,15.23
2019-05-20T03:28:24.436Z,16.00
2019-05-20T03:30:52.998Z,16.27
2019-05-20T03:33:21.658Z,16.40
2019-05-20T03:35:50.256Z,15.40
2019-05-20T03:38:19.132Z,16.15
2019-05-20T03:40:47.756Z,15.90
2019-05-20T03:43:16.390Z,17.27
2019-05-20T03:45:45.044Z,17.85
2019-05-20T03:48:13.714Z,20.23
2019-05-20T03:50:42.662Z,19.65
2019-05-20T03:53:11.225Z,21.67
2019-05-20T03:55:41.362Z,20.15
2019-05-20T03:58:13.299Z,20.95
2019-05-20T04:00:44.952Z,19.40
2019-05-20T04:03:14.714Z,20.43
2019-05-20T04:05:43.869Z,20.05
2019-05-20T04:08:12.583Z,19.32
2019-05-20T04:10:41.215Z,21.20
2019-05-20T04:13:09.912Z,19.95
2019-05-20T04:15:38.470Z,21.00
2019-05-20T04:18:07.136Z,19.50
2019-05-20T04:20:35.768Z,18.50
2019-05-20T04:23:04.375Z,18.80
2019-05-20T04:25:33.380Z,19.02
2019-05-20T04:28:01.931Z,18.20
2019-05-20T04:30:30.600Z,18.75
2019-05-20T04:32:59.329Z,17.60
2019-05-20T04:35:27.957Z,17.37
2019-05-20T04:37:56.657Z,17.45
2019-05-20T04:40:25.282Z,17.77
2019-05-20T04:42:53.811Z,17.67
2019-05-20T04:45:22.380Z,16.93
2019-05-20T04:47:50.985Z,17.23
2019-05-20T04:50:21.287Z,17.32
2019-05-20T04:52:49.842Z,17.42
2019-05-20T04:55:18.512Z,17.17
2019-05-20T04:57:47.069Z,20.32
2019-05-20T05:00:18.731Z,21.68
2019-05-20T05:02:47.380Z,20.77
2019-05-20T05:05:16.008Z,21.73
2019-05-20T05:07:44.564Z,21.42
2019-05-20T05:10:13.506Z,21.27
2019-05-20T05:12:42.061Z,20.30
2019-05-20T05:15:11.161Z,21.87
2019-05-20T05:17:39.889Z,18.75
2019-05-20T05:20:17.540Z,19.65
2019-05-20T05:22:39.384Z,20.15
2019-05-20T05:25:08.422Z,19.20
2019-05-20T05:27:37.284Z,20.14
2019-05-20T05:30:07.087Z,19.32
2019-05-20T05:32:42.573Z,20.12
2019-05-20T05:35:14.217Z,19.87
2019-05-20T05:37:42.889Z,21.35
2019-05-20T05:40:14.182Z,21.65
2019-05-20T05:42:42.727Z,21.30
2019-05-20T05:45:11.739Z,19.87
2019-05-20T05:47:41.799Z,19.92
2019-05-20T05:50:10.729Z,20.08
2019-05-20T05:52:39.377Z,20.08
2019-05-20T05:55:08.429Z,20.43
2019-05-20T05:57:36.974Z,22.67
2019-05-20T06:00:08.942Z,21.56
2019-05-20T06:02:37.517Z,23.30
2019-05-20T06:05:07.022Z,23.50
2019-05-20T06:07:35.589Z,23.50
2019-05-20T06:10:06.443Z,23.00
2019-05-20T06:12:35.021Z,22.07
2019-05-20T06:15:05.682Z,22.70
2019-05-20T06:17:34.283Z,22.40
2019-05-20T06:20:03.283Z,21.02
2019-05-20T06:22:31.821Z,23.22
2019-05-20T06:25:00.411Z,22.73
2019-05-20T06:27:29.017Z,21.55
2019-05-20T06:29:57.701Z,23.42
2019-05-20T06:32:26.297Z,23.57
2019-05-20T06:34:56.630Z,22.10
2019-05-20T06:37:27.141Z,21.97
2019-05-20T06:39:59.431Z,22.42
2019-05-20T06:42:27.830Z,20.92
2019-05-20T06:44:57.384Z,20.85
2019-05-20T06:47:26.279Z,16.42
2019-05-20T06:49:55.134Z,13.38
2019-05-20T06:52:35.462Z,12.18
2019-05-20T06:54:54.717Z,8.68
2019-05-20T06:57:24.005Z,5.90
2019-05-20T06:59:52.874Z,3.72
2019-05-20T07:02:21.592Z,3.87
2019-05-20T07:04:50.257Z,3.67
2019-05-20T07:07:21.245Z,3.33
2019-05-20T07:09:49.103Z,4.50
2019-05-20T07:12:17.749Z,5.15
2019-05-20T07:14:46.323Z,5.08
2019-05-20T07:17:14.975Z,4.87
2019-05-20T07:19:43.507Z,4.15
2019-05-20T07:22:12.132Z,3.47
2019-05-20T07:24:40.796Z,3.40
2019-05-20T07:27:09.486Z,3.37
2019-05-20T07:29:38.140Z,3.30
2019-05-20T07:32:06.716Z,3.10
2019-05-20T07:34:35.532Z,2.87
2019-05-20T07:37:04.281Z,2.70
2019-05-20T07:39:33.136Z,3.00
2019-05-20T07:42:01.740Z,3.05
2019-05-20T07:44:30.591Z,5.65
2019-05-20T07:47:00.935Z,3.30
2019-05-20T07:49:29.642Z,4.58
2019-05-20T07:51:58.549Z,3.30
2019-05-20T07:54:27.683Z,3.33
2019-05-20T07:57:00.302Z,4.00
2019-05-20T07:59:31.511Z,2.72
2019-05-20T08:02:00.583Z,3.27
2019-05-20T08:04:29.192Z,3.12
2019-05-20T08:06:57.796Z,2.80
2019-05-20T08:09:26.478Z,2.50
2019-05-20T08:11:55.094Z,2.42
2019-05-20T08:14:23.721Z,2.55
2019-05-20T08:16:52.621Z,2.72
2019-05-20T08:19:22.161Z,2.85
2019-05-20T08:21:50.998Z,2.58
2019-05-20T08:24:19.714Z,2.30
2019-05-20T08:26:48.350Z,2.35
2019-05-20T08:29:16.917Z,2.42
2019-05-20T08:31:45.535Z,2.80
2019-05-20T08:34:14.192Z,2.40
2019-05-20T08:36:42.867Z,2.57
2019-05-20T08:39:11.539Z,1.45
2019-05-20T08:41:40.098Z,1.70
2019-05-20T08:44:08.739Z,1.87
2019-05-20T08:46:37.429Z,1.55
2019-05-20T08:49:10.764Z,1.80
2019-05-20T08:51:36.499Z,1.92
2019-05-20T08:54:06.040Z,2.58
2019-05-20T08:56:34.664Z,1.92
2019-05-20T08:59:03.378Z,2.27
2019-05-20T09:01:32.029Z,1.50
2019-05-20T09:04:01.217Z,1.58
2019-05-20T09:06:29.805Z,1.40
2019-05-20T09:08:58.377Z,1.50
2019-05-20T09:11:27.074Z,1.10
2019-05-20T09:13:55.696Z,1.42
2019-05-20T09:16:24.330Z,1.20
2019-05-20T09:18:52.882Z,1.65
2019-05-20T09:21:21.446Z,1.80
2019-05-20T09:23:50.065Z,2.20
2019-05-20T09:26:18.581Z,1.82
2019-05-20T09:28:47.231Z,3.27
2019-05-20T09:31:15.971Z,6.17
2019-05-20T09:33:44.637Z,13.47
2019-05-20T09:36:13.287Z,4.40
2019-05-20T09:38:42.010Z,2.83
2019-05-20T09:41:10.574Z,3.42
2019-05-20T09:43:39.326Z,6.25
2019-05-20T09:46:08.560Z,5.70
2019-05-20T09:48:37.233Z,5.47
2019-05-20T09:51:05.961Z,5.03
2019-05-20T09:53:34.658Z,5.22
2019-05-20T09:56:04.139Z,4.83
2019-05-20T09:58:32.691Z,5.25
2019-05-20T10:01:01.366Z,4.60
2019-05-20T10:03:29.902Z,5.30
2019-05-20T10:05:59.539Z,5.25
2019-05-20T10:08:37.945Z,5.13
2019-05-20T10:10:59.706Z,4.73
2019-05-20T10:13:28.832Z,5.30
2019-05-20T10:15:57.465Z,4.93
2019-05-20T10:18:36.544Z,5.97
2019-05-20T10:20:56.302Z,6.22
2019-05-20T10:23:25.011Z,5.55
2019-05-20T10:25:53.740Z,6.00
2019-05-20T10:28:23.121Z,6.10
2019-05-20T10:30:51.718Z,6.15
2019-05-20T10:33:20.298Z,6.05
2019-05-20T10:35:48.937Z,6.12
2019-05-20T10:38:17.521Z,5.33
2019-05-20T10:40:46.068Z,5.97
2019-05-20T10:43:14.721Z,6.55
2019-05-20T10:45:43.293Z,5.33
2019-05-20T10:48:11.845Z,4.53
2019-05-20T10:50:40.821Z,4.87
2019-05-20T10:53:09.488Z,4.03
2019-05-20T10:55:38.023Z,3.40
2019-05-20T10:58:06.583Z,3.70
2019-05-20T11:00:35.397Z,3.95
2019-05-20T11:03:04.036Z,4.67
2019-05-20T11:05:32.698Z,4.50
2019-05-20T11:08:02.202Z,4.10
2019-05-20T11:10:30.837Z,3.05
2019-05-20T11:12:59.660Z,4.12
2019-05-20T11:15:28.393Z,6.00
2019-05-20T11:17:57.046Z,4.17
2019-05-20T11:20:25.627Z,2.80
2019-05-20T11:22:54.098Z,3.25
2019-05-20T11:25:22.867Z,2.95
2019-05-20T11:27:51.423Z,2.75
2019-05-20T11:30:20.523Z,2.60
2019-05-20T11:32:49.194Z,3.17
2019-05-20T11:35:17.829Z,2.20
2019-05-20T11:37:46.576Z,3.10
2019-05-20T11:40:15.667Z,2.98
2019-05-20T11:42:44.297Z,3.12
2019-05-20T11:45:13.327Z,2.70
2019-05-20T11:47:41.902Z,2.50
2019-05-20T11:50:11.174Z,3.02
2019-05-20T11:52:39.788Z,2.70
2019-05-20T11:55:11.761Z,3.22
2019-05-20T11:57:40.546Z,3.10
2019-05-20T12:00:11.268Z,3.07
2019-05-20T12:02:40.115Z,3.17
2019-05-20T12:05:08.885Z,3.37
2019-05-20T12:07:37.547Z,2.95
2019-05-20T12:10:09.897Z,3.00
2019-05-20T12:12:38.643Z,3.12
2019-05-20T12:15:08.675Z,3.15
2019-05-20T12:17:37.268Z,3.30
2019-05-20T12:20:10.510Z,3.33
2019-05-20T12:22:38.725Z,2.98
2019-05-20T12:25:08.973Z,3.20
2019-05-20T12:27:37.629Z,3.58
2019-05-20T12:30:07.676Z,3.83
2019-05-20T12:32:36.613Z,3.63
2019-05-20T12:35:09.302Z,4.03
2019-05-20T12:37:38.049Z,3.50
2019-05-20T12:40:08.478Z,3.70
2019-05-20T12:42:37.791Z,3.67
2019-05-20T12:45:08.103Z,4.12
2019-05-20T12:47:37.389Z,4.58
2019-05-20T12:50:07.493Z,3.42
2019-05-20T12:52:36.263Z,3.50
2019-05-20T12:55:09.149Z,3.80
2019-05-20T12:57:36.914Z,4.58
2019-05-20T13:00:13.211Z,3.50
2019-05-20T13:02:42.596Z,4.65
2019-05-20T13:05:12.747Z,4.33
2019-05-20T13:07:41.549Z,3.50
2019-05-20T13:10:27.843Z,3.40
2019-05-20T13:12:41.153Z,3.62
2019-05-20T13:15:11.393Z,3.57
2019-05-20T13:17:44.313Z,3.17
2019-05-20T13:20:11.739Z,3.45
2019-05-20T13:22:40.545Z,3.67
2019-05-20T13:25:09.562Z,3.27
2019-05-20T13:27:38.224Z,3.47
2019-05-20T13:30:09.011Z,2.92
2019-05-20T13:32:37.814Z,3.12
2019-05-20T13:35:07.957Z,3.40
2019-05-20T13:37:37.459Z,3.25
2019-05-20T13:40:06.948Z,3.40
2019-05-20T13:42:35.566Z,3.30
2019-05-20T13:45:06.198Z,3.33
2019-05-20T13:47:35.283Z,3.42
2019-05-20T13:50:06.954Z,3.42
2019-05-20T13:52:35.531Z,2.95
2019-05-20T13:55:04.539Z,3.70
2019-05-20T13:57:33.183Z,3.98
2019-05-20T14:00:01.785Z,3.52
2019-05-20T14:02:30.346Z,3.25
2019-05-20T14:04:58.892Z,2.98
2019-05-20T14:07:27.490Z,2.70
2019-05-20T14:09:56.223Z,3.40
2019-05-20T14:12:24.789Z,3.72
2019-05-20T14:14:53.377Z,3.30
2019-05-20T14:17:21.933Z,2.90
2019-05-20T14:19:50.562Z,3.77
2019-05-20T14:22:19.153Z,3.80
2019-05-20T14:24:47.712Z,3.25
2019-05-20T14:27:16.274Z,3.30
2019-05-20T14:29:44.932Z,3.22
2019-05-20T14:32:13.489Z,3.22
2019-05-20T14:34:42.032Z,2.92
2019-05-20T14:37:10.557Z,3.52
2019-05-20T14:39:39.138Z,2.90
2019-05-20T14:42:07.680Z,3.27
2019-05-20T14:44:36.281Z,3.30
2019-05-20T14:47:04.839Z,3.92
2019-05-20T14:49:34.240Z,3.47
2019-05-20T14:52:02.821Z,3.60
2019-05-20T14:54:31.418Z,3.77
2019-05-20T14:56:59.949Z,3.50
2019-05-20T14:59:28.610Z,3.70
2019-05-20T15:01:57.158Z,3.43
2019-05-20T15:04:25.661Z,4.03
2019-05-20T15:06:54.189Z,3.84
2019-05-20T15:09:22.742Z,3.70
2019-05-20T15:11:51.289Z,3.45
2019-05-20T15:14:19.978Z,4.22
2019-05-20T15:16:48.580Z,7.42
2019-05-20T15:19:17.111Z,2.30
2019-05-20T15:21:45.786Z,2.40
2019-05-20T15:24:14.381Z,2.52
2019-05-20T15:26:43.085Z,2.70
2019-05-20T15:29:26.871Z,2.60
2019-05-20T15:31:42.742Z,2.20
2019-05-20T15:34:11.337Z,3.60
2019-05-20T15:36:40.081Z,3.12
2019-05-20T15:39:08.802Z,3.80
2019-05-20T15:41:37.396Z,2.90
2019-05-20T15:44:07.750Z,2.40
2019-05-20T15:46:36.493Z,2.67
2019-05-20T15:49:05.077Z,6.27
2019-05-20T15:51:34.430Z,5.00
2019-05-20T15:54:03.085Z,8.93
2019-05-20T15:56:31.622Z,3.80
2019-05-20T15:59:00.453Z,3.80
2019-05-20T16:01:29.124Z,2.95
2019-05-20T16:03:57.915Z,3.37
2019-05-20T16:06:26.680Z,3.98
2019-05-20T16:08:55.402Z,4.00
2019-05-20T16:11:24.133Z,3.20
2019-05-20T16:13:52.959Z,4.70
2019-05-20T16:16:21.550Z,3.33
2019-05-20T16:18:50.107Z,3.70
2019-05-20T16:21:18.762Z,4.17
2019-05-20T16:23:47.848Z,4.08
2019-05-20T16:26:16.402Z,4.50
2019-05-20T16:28:45.026Z,4.80
2019-05-20T16:31:14.137Z,4.80
2019-05-20T16:33:42.688Z,3.95
2019-05-20T16:36:11.290Z,3.45
2019-05-20T16:38:39.850Z,3.45
2019-05-20T16:41:08.434Z,7.80
2019-05-20T16:43:37.045Z,5.17
2019-05-20T16:46:05.596Z,4.30
2019-05-20T16:48:34.402Z,3.52
2019-05-20T16:51:03.040Z,16.57
2019-05-20T16:53:31.732Z,11.75
2019-05-20T16:56:00.299Z,11.70
2019-05-20T16:58:28.896Z,10.58
2019-05-20T17:00:57.620Z,8.70
2019-05-20T17:03:26.714Z,7.40
2019-05-20T17:05:55.382Z,13.70
2019-05-20T17:08:23.959Z,9.68
2019-05-20T17:10:52.590Z,7.40
2019-05-20T17:13:21.342Z,5.67
2019-05-20T17:15:50.021Z,5.15
2019-05-20T17:18:18.591Z,4.00
2019-05-20T17:20:47.634Z,2.90
2019-05-20T17:23:16.197Z,2.92
2019-05-20T17:25:44.772Z,3.25
2019-05-20T17:28:13.360Z,4.37
2019-05-20T17:30:45.571Z,4.03
2019-05-20T17:33:14.161Z,3.60
2019-05-20T17:35:43.033Z,12.75
2019-05-20T17:38:11.650Z,15.68
2019-05-20T17:40:40.776Z,3.25
2019-05-20T17:43:09.572Z,3.37
2019-05-20T17:45:38.369Z,2.47
2019-05-20T17:48:07.059Z,2.60
2019-05-20T17:50:35.874Z,2.80
2019-05-20T17:53:04.586Z,2.95
2019-05-20T17:55:33.496Z,3.30
2019-05-20T17:58:02.134Z,3.00
2019-05-20T18:00:30.909Z,2.40
2019-05-20T18:02:59.610Z,2.72
2019-05-20T18:05:28.181Z,3.58
2019-05-20T18:07:58.314Z,3.92
2019-05-20T18:10:26.984Z,3.42
2019-05-20T18:12:55.622Z,3.33
2019-05-20T18:15:24.207Z,3.67
2019-05-20T18:17:53.159Z,2.75
2019-05-20T18:20:22.063Z,2.50
2019-05-20T18:22:50.787Z,2.62
2019-05-20T18:25:20.270Z,2.80
2019-05-20T18:27:49.079Z,3.33
2019-05-20T18:30:17.977Z,2.60
2019-05-20T18:32:46.611Z,2.92
2019-05-20T18:35:15.483Z,4.45
2019-05-20T18:37:44.222Z,4.15
2019-05-20T18:40:14.950Z,3.00
2019-05-20T18:42:43.781Z,2.67
2019-05-20T18:45:12.845Z,3.70
2019-05-20T18:47:41.544Z,4.93
2019-05-20T18:50:10.815Z,4.30
2019-05-20T18:52:39.930Z,6.90
2019-05-20T18:55:08.900Z,12.68
2019-05-20T18:57:37.835Z,9.93
2019-05-20T19:00:10.345Z,9.88
2019-05-20T19:02:39.471Z,3.64
2019-05-20T19:05:08.587Z,4.30
2019-05-20T19:07:37.181Z,6.20
2019-05-20T19:10:06.958Z,6.47
2019-05-20T19:12:35.986Z,11.33
2019-05-20T19:15:07.154Z,7.90
2019-05-20T19:17:35.995Z,5.58
2019-05-20T19:20:06.351Z,6.53
2019-05-20T19:22:35.454Z,13.70
2019-05-20T19:25:06.780Z,13.75
2019-05-20T19:27:35.704Z,9.15
2019-05-20T19:30:05.303Z,13.10
2019-05-20T19:32:34.365Z,12.78
2019-05-20T19:35:04.393Z,18.90
2019-05-20T19:37:33.016Z,15.98
2019-05-20T19:40:05.784Z,22.05
2019-05-20T19:42:37.726Z,21.37
2019-05-20T19:45:06.707Z,16.50
2019-05-20T19:47:35.261Z,5.10
2019-05-20T19:50:09.240Z,3.95
2019-05-20T19:52:38.135Z,5.00
2019-05-20T19:55:07.465Z,6.12
2019-05-20T19:57:37.470Z,12.50
2019-05-20T20:00:08.246Z,8.00
2019-05-20T20:02:36.882Z,10.95
2019-05-20T20:05:07.832Z,16.85
2019-05-20T20:07:36.522Z,6.30
2019-05-20T20:10:05.737Z,6.12
2019-05-20T20:12:34.639Z,6.33
2019-05-20T20:15:03.455Z,3.92
2019-05-20T20:17:32.112Z,4.28
2019-05-20T20:20:01.042Z,3.23
2019-05-20T20:22:29.626Z,3.40
2019-05-20T20:24:58.267Z,3.35
2019-05-20T20:27:26.859Z,3.30
2019-05-20T20:29:55.332Z,3.20
2019-05-20T20:32:37.237Z,3.05
2019-05-20T20:34:54.318Z,2.98
2019-05-20T20:37:22.846Z,3.30
2019-05-20T20:39:51.386Z,3.15
2019-05-20T20:42:20.146Z,3.55
2019-05-20T20:44:48.702Z,4.35
2019-05-20T20:47:17.297Z,4.40
2019-05-20T20:49:45.902Z,4.35
2019-05-20T20:52:14.464Z,4.05
2019-05-20T20:54:43.087Z,4.17
2019-05-20T20:57:11.677Z,3.95
2019-05-20T20:59:40.279Z,3.75
2019-05-20T21:02:08.776Z,3.60
2019-05-20T21:04:37.526Z,3.72
2019-05-20T21:07:06.280Z,3.17
2019-05-20T21:09:34.871Z,3.50
2019-05-20T21:12:03.699Z,3.30
2019-05-20T21:14:32.219Z,3.70
2019-05-20T21:17:00.882Z,4.05
2019-05-20T21:19:29.592Z,3.37
2019-05-20T21:21:58.246Z,3.15
2019-05-20T21:24:27.021Z,3.05
2019-05-20T21:26:55.612Z,3.02
2019-05-20T21:29:24.188Z,3.20
2019-05-20T21:31:52.937Z,3.15
2019-05-20T21:34:21.529Z,3.20
2019-05-20T21:36:50.961Z,2.95
2019-05-20T21:39:19.513Z,3.40
2019-05-20T21:41:48.100Z,2.70
2019-05-20T21:44:17.220Z,2.94
2019-05-20T21:46:45.766Z,3.75
2019-05-20T21:49:14.371Z,3.60
2019-05-20T21:51:42.925Z,3.75
2019-05-20T21:54:11.481Z,4.00
2019-05-20T21:56:40.126Z,3.27
2019-05-20T21:59:08.662Z,4.05
2019-05-20T22:01:37.526Z,4.37
2019-05-20T22:04:09.121Z,3.95
2019-05-20T22:06:38.399Z,4.04
2019-05-20T22:09:07.176Z,3.52
2019-05-20T22:11:35.754Z,3.55
2019-05-20T22:14:04.424Z,5.10
2019-05-20T22:16:33.066Z,7.85
2019-05-20T22:19:02.237Z,6.93
2019-05-20T22:21:32.425Z,5.37
2019-05-20T22:24:02.657Z,4.77
2019-05-20T22:26:31.406Z,4.25
2019-05-20T22:29:00.221Z,3.92
2019-05-20T22:31:28.879Z,3.75
2019-05-20T22:33:57.754Z,4.35
2019-05-20T22:36:26.274Z,3.98
2019-05-20T22:38:54.820Z,3.90
2019-05-20T22:41:23.416Z,3.53
2019-05-20T22:43:51.984Z,3.45
2019-05-20T22:46:20.519Z,3.23
2019-05-20T22:48:49.117Z,3.30
2019-05-20T22:51:17.677Z,3.47
2019-05-20T22:53:46.231Z,3.62
2019-05-20T22:56:14.803Z,2.98
2019-05-20T22:58:43.361Z,3.77
2019-05-20T23:01:11.909Z,3.92
2019-05-20T23:03:40.522Z,3.40
2019-05-20T23:06:09.034Z,3.87
2019-05-20T23:08:38.117Z,4.40
2019-05-20T23:11:06.691Z,3.80
2019-05-20T23:13:35.254Z,3.98
2019-05-20T23:16:03.929Z,3.80
2019-05-20T23:18:32.568Z,4.10
2019-05-20T23:21:01.287Z,3.90
2019-05-20T23:23:29.861Z,4.05
2019-05-20T23:25:58.532Z,4.20
2019-05-20T23:28:27.121Z,4.30
2019-05-20T23:30:55.747Z,4.75
2019-05-20T23:33:24.338Z,4.70
2019-05-20T23:35:52.992Z,4.30
2019-05-20T23:38:21.536Z,4.42
2019-05-20T23:41:09.388Z,4.30
2019-05-20T23:43:38.002Z,3.98
2019-05-20T23:46:07.403Z,4.47
2019-05-20T23:48:35.997Z,3.73
2019-05-20T23:51:04.551Z,3.65
2019-05-20T23:53:33.099Z,3.73
2019-05-20T23:56:01.693Z,3.37
2019-05-20T23:58:30.227Z,3.37
